Ten'yo — JBBC — position and weather

sailwx.info

Track history (hours):
 
Tides and Currents Weather Stations Pressure Air Temp Water Temp Dewpoint Dewpoint Depression Visibility Wind Speed Wind Dir Waves Ship Positions

Oceanographic research ship Ten'yo (Japan)

Detailed information on ship capabilities available from University of Delaware's Ocean Information Center.

Last reported at 2014-Jul-23 00:33 UTC. Time now 2014-Jul-24 10:41 UTC.
Position N 35°38' E 139°46'.

Length 56 m; draft 3.6 m.

Type: Other ship. MMSI: 431100350.

Date/timePositionNaut miles runAvg speedWind from/ knotsBaromVisibWave heightAir tempDewpointWater temp
2014-Jul-23 00:33N 35°38' E 139°46'7 6.7
2014-Jul-22 23:33N 35°35' E 139°53'0 0.0
2014-Jul-22 22:31N 35°35' E 139°53'0 0.0
2014-Jul-22 21:31N 35°35' E 139°53'0 0.0
2014-Jul-22 20:31N 35°35' E 139°53'0 0.0
2014-Jul-22 19:31N 35°35' E 139°53'0 0.0
2014-Jul-22 18:31N 35°35' E 139°53'0 0.0
2014-Jul-22 17:28N 35°35' E 139°53'0 0.0
2014-Jul-22 16:31N 35°35' E 139°53'0 0.0
2014-Jul-22 15:31N 35°35' E 139°53'0 0.0
2014-Jul-22 14:31N 35°35' E 139°53'0 0.0
2014-Jul-22 13:31N 35°35' E 139°53'0 0.0
2014-Jul-22 12:28N 35°35' E 139°53'0 0.0
2014-Jul-22 11:31N 35°35' E 139°53'0 0.0
2014-Jul-22 10:25N 35°35' E 139°53'0 0.0
2014-Jul-22 09:27N 35°35' E 139°53'4 4.0
2014-Jul-22 08:33N 35°31' E 139°52'10 9.7
2014-Jul-22 07:34N 35°23' E 139°46'1010.1
2014-Jul-22 06:34N 35°13' E 139°47'1111.1
2014-Jul-22 05:33N 35°02' E 139°45'8 8.0
2014-Jul-22 04:33N 34°54' E 139°47'4 3.8
2014-Jul-22 03:25N 34°58' E 139°44'0 0.1
2014-Jul-22 02:33N 34°58' E 139°44'7 6.8
2014-Jul-22 01:33N 34°52' E 139°49'13 4.0
2014-Jul-21 22:22N 34°54' E 140°04'12 9.9
2014-Jul-21 21:07N 34°60' E 140°17'34 9.2
2014-Jul-21 17:26N 35°24' E 140°46'9 9.8
2014-Jul-21 16:33N 35°32' E 140°52'10 9.7
2014-Jul-21 15:33N 35°40' E 140°58'1411.0
2014-Jul-21 14:15N 35°54' E 141°03'810.7
2014-Jul-21 13:31N 36°02' E 141°04'1210.7
2014-Jul-21 12:23N 36°14' E 141°06'  
Track history (hours):
 
Tides and Currents Weather Stations Pressure Air Temp Water Temp Dewpoint Dewpoint Depression Visibility Wind Speed Wind Dir Waves Ship Positions

Oceanographic research ship Ten'yo (Japan)

Detailed information on ship capabilities available from University of Delaware's Ocean Information Center.

Last reported at 2014-Jul-23 00:33 UTC. Time now 2014-Jul-24 10:41 UTC.
Position N 35°38' E 139°46'.

Length 56 m; draft 3.6 m.

Type: Other ship. MMSI: 431100350.

Date/timePositionNaut miles runAvg speedWind from/ knotsBaromVisibWave heightAir tempDewpointWater temp
2014-Jul-23 00:33N 35°38' E 139°46'7 6.7
2014-Jul-22 23:33N 35°35' E 139°53'0 0.0
2014-Jul-22 22:31N 35°35' E 139°53'0 0.0
2014-Jul-22 21:31N 35°35' E 139°53'0 0.0
2014-Jul-22 20:31N 35°35' E 139°53'0 0.0
2014-Jul-22 19:31N 35°35' E 139°53'0 0.0
2014-Jul-22 18:31N 35°35' E 139°53'0 0.0
2014-Jul-22 17:28N 35°35' E 139°53'0 0.0
2014-Jul-22 16:31N 35°35' E 139°53'0 0.0
2014-Jul-22 15:31N 35°35' E 139°53'0 0.0
2014-Jul-22 14:31N 35°35' E 139°53'0 0.0
2014-Jul-22 13:31N 35°35' E 139°53'0 0.0
2014-Jul-22 12:28N 35°35' E 139°53'0 0.0
2014-Jul-22 11:31N 35°35' E 139°53'0 0.0
2014-Jul-22 10:25N 35°35' E 139°53'0 0.0
2014-Jul-22 09:27N 35°35' E 139°53'4 4.0
2014-Jul-22 08:33N 35°31' E 139°52'10 9.7
2014-Jul-22 07:34N 35°23' E 139°46'1010.1
2014-Jul-22 06:34N 35°13' E 139°47'1111.1
2014-Jul-22 05:33N 35°02' E 139°45'8 8.0
2014-Jul-22 04:33N 34°54' E 139°47'4 3.8
2014-Jul-22 03:25N 34°58' E 139°44'0 0.1
2014-Jul-22 02:33N 34°58' E 139°44'7 6.8
2014-Jul-22 01:33N 34°52' E 139°49'13 4.0
2014-Jul-21 22:22N 34°54' E 140°04'12 9.9
2014-Jul-21 21:07N 34°60' E 140°17'34 9.2
2014-Jul-21 17:26N 35°24' E 140°46'9 9.8
2014-Jul-21 16:33N 35°32' E 140°52'10 9.7
2014-Jul-21 15:33N 35°40' E 140°58'1411.0
2014-Jul-21 14:15N 35°54' E 141°03'810.7
2014-Jul-21 13:31N 36°02' E 141°04'1210.7
2014-Jul-21 12:23N 36°14' E 141°06'  

Dump ship's entire track history